Aviation Digital Data Service (ADDS)

Output produced by METARs form (0610 UTC 25 June 2018)
found at http://www.aviationweather.gov/adds/metars/
 
MZBZ 250300Z 10008KT 9999 BKN018 28/25 A2995 Q1014 NOSIG
TAF MZBZ 250300Z 2506/2606 10008KT 9999 SCT023